sensor_id;sensor_type;location;lat;lon;timestamp;temperature;humidity
71082;SHT31;58740;50.672;18.690;2024-02-26T00:00:25;7.37;70.07
71082;SHT31;58740;50.672;18.690;2024-02-26T00:03:19;7.34;70.31
71082;SHT31;58740;50.672;18.690;2024-02-26T00:05:52;7.33;70.26
71082;SHT31;58740;50.672;18.690;2024-02-26T00:08:26;7.33;70.40
71082;SHT31;58740;50.672;18.690;2024-02-26T00:10:59;7.33;70.56
71082;SHT31;58740;50.672;18.690;2024-02-26T00:13:32;7.31;70.51
71082;SHT31;58740;50.672;18.690;2024-02-26T00:16:06;7.30;70.68
71082;SHT31;58740;50.672;18.690;2024-02-26T00:18:39;7.32;70.84
71082;SHT31;58740;50.672;18.690;2024-02-26T00:21:15;7.37;70.85
71082;SHT31;58740;50.672;18.690;2024-02-26T00:23:50;7.41;70.56
71082;SHT31;58740;50.672;18.690;2024-02-26T00:26:25;7.41;70.59
71082;SHT31;58740;50.672;18.690;2024-02-26T00:28:58;7.41;70.56
71082;SHT31;58740;50.672;18.690;2024-02-26T00:31:31;7.39;70.50
71082;SHT31;58740;50.672;18.690;2024-02-26T00:34:06;7.39;70.55
71082;SHT31;58740;50.672;18.690;2024-02-26T00:36:40;7.38;70.60
71082;SHT31;58740;50.672;18.690;2024-02-26T00:39:13;7.37;70.56
71082;SHT31;58740;50.672;18.690;2024-02-26T00:41:46;7.34;70.64
71082;SHT31;58740;50.672;18.690;2024-02-26T00:44:21;7.35;70.65
71082;SHT31;58740;50.672;18.690;2024-02-26T00:46:54;7.32;70.64
71082;SHT31;58740;50.672;18.690;2024-02-26T00:49:27;7.26;70.44
71082;SHT31;58740;50.672;18.690;2024-02-26T00:52:00;7.19;70.66
71082;SHT31;58740;50.672;18.690;2024-02-26T00:54:34;7.15;70.78
71082;SHT31;58740;50.672;18.690;2024-02-26T00:57:07;7.10;70.87
71082;SHT31;58740;50.672;18.690;2024-02-26T00:59:41;7.07;71.09
71082;SHT31;58740;50.672;18.690;2024-02-26T01:02:14;7.06;71.22
71082;SHT31;58740;50.672;18.690;2024-02-26T01:04:48;7.06;71.23
71082;SHT31;58740;50.672;18.690;2024-02-26T01:07:21;7.09;71.03
71082;SHT31;58740;50.672;18.690;2024-02-26T01:09:55;7.12;71.05
71082;SHT31;58740;50.672;18.690;2024-02-26T01:12:28;7.14;71.13
71082;SHT31;58740;50.672;18.690;2024-02-26T01:15:02;7.17;71.06
71082;SHT31;58740;50.672;18.690;2024-02-26T01:17:38;7.20;70.84
71082;SHT31;58740;50.672;18.690;2024-02-26T01:20:11;7.20;70.73
71082;SHT31;58740;50.672;18.690;2024-02-26T01:22:45;7.23;70.67
71082;SHT31;58740;50.672;18.690;2024-02-26T01:25:18;7.25;70.53
71082;SHT31;58740;50.672;18.690;2024-02-26T01:27:51;7.26;70.52
71082;SHT31;58740;50.672;18.690;2024-02-26T01:30:24;7.27;70.53
71082;SHT31;58740;50.672;18.690;2024-02-26T01:32:58;7.27;70.48
71082;SHT31;58740;50.672;18.690;2024-02-26T01:35:32;7.29;70.47
71082;SHT31;58740;50.672;18.690;2024-02-26T01:38:05;7.29;70.50
71082;SHT31;58740;50.672;18.690;2024-02-26T01:40:38;7.29;70.50
71082;SHT31;58740;50.672;18.690;2024-02-26T01:43:11;7.31;70.39
71082;SHT31;58740;50.672;18.690;2024-02-26T01:45:44;7.32;70.40
71082;SHT31;58740;50.672;18.690;2024-02-26T01:48:18;7.34;70.31
71082;SHT31;58740;50.672;18.690;2024-02-26T01:50:51;7.36;70.26
71082;SHT31;58740;50.672;18.690;2024-02-26T01:53:25;7.38;70.28
71082;SHT31;58740;50.672;18.690;2024-02-26T01:55:59;7.39;70.21
71082;SHT31;58740;50.672;18.690;2024-02-26T01:58:32;7.39;70.13
71082;SHT31;58740;50.672;18.690;2024-02-26T02:01:07;7.40;70.17
71082;SHT31;58740;50.672;18.690;2024-02-26T02:03:41;7.40;70.19
71082;SHT31;58740;50.672;18.690;2024-02-26T02:06:15;7.41;70.25
71082;SHT31;58740;50.672;18.690;2024-02-26T02:08:49;7.42;70.26
71082;SHT31;58740;50.672;18.690;2024-02-26T02:11:24;7.44;70.42
71082;SHT31;58740;50.672;18.690;2024-02-26T02:13:57;7.44;70.42
71082;SHT31;58740;50.672;18.690;2024-02-26T02:16:30;7.46;70.36
71082;SHT31;58740;50.672;18.690;2024-02-26T02:19:04;7.45;70.30
71082;SHT31;58740;50.672;18.690;2024-02-26T02:21:37;7.45;70.24
71082;SHT31;58740;50.672;18.690;2024-02-26T02:24:10;7.46;70.23
71082;SHT31;58740;50.672;18.690;2024-02-26T02:26:44;7.46;70.10
71082;SHT31;58740;50.672;18.690;2024-02-26T02:29:17;7.45;70.18
71082;SHT31;58740;50.672;18.690;2024-02-26T02:31:51;7.44;70.16
71082;SHT31;58740;50.672;18.690;2024-02-26T02:34:25;7.42;70.12
71082;SHT31;58740;50.672;18.690;2024-02-26T02:36:59;7.40;70.08
71082;SHT31;58740;50.672;18.690;2024-02-26T02:39:32;7.37;70.00
71082;SHT31;58740;50.672;18.690;2024-02-26T02:42:05;7.34;70.05
71082;SHT31;58740;50.672;18.690;2024-02-26T02:44:39;7.31;70.08
71082;SHT31;58740;50.672;18.690;2024-02-26T02:47:13;7.29;70.16
71082;SHT31;58740;50.672;18.690;2024-02-26T02:49:46;7.27;70.22
71082;SHT31;58740;50.672;18.690;2024-02-26T02:52:20;7.26;70.29
71082;SHT31;58740;50.672;18.690;2024-02-26T02:54:53;7.26;70.33
71082;SHT31;58740;50.672;18.690;2024-02-26T02:57:26;7.25;70.51
71082;SHT31;58740;50.672;18.690;2024-02-26T03:00:00;7.25;70.53
71082;SHT31;58740;50.672;18.690;2024-02-26T03:02:35;7.23;70.47
71082;SHT31;58740;50.672;18.690;2024-02-26T03:05:08;7.22;70.62
71082;SHT31;58740;50.672;18.690;2024-02-26T03:07:42;7.20;70.75
71082;SHT31;58740;50.672;18.690;2024-02-26T03:10:15;7.14;70.78
71082;SHT31;58740;50.672;18.690;2024-02-26T03:12:49;7.11;71.00
71082;SHT31;58740;50.672;18.690;2024-02-26T03:15:22;7.08;71.00
71082;SHT31;58740;50.672;18.690;2024-02-26T03:17:55;7.02;71.01
71082;SHT31;58740;50.672;18.690;2024-02-26T03:20:29;6.99;71.16
71082;SHT31;58740;50.672;18.690;2024-02-26T03:23:03;6.98;71.25
71082;SHT31;58740;50.672;18.690;2024-02-26T03:25:38;6.96;71.31
71082;SHT31;58740;50.672;18.690;2024-02-26T03:28:16;6.97;71.27
71082;SHT31;58740;50.672;18.690;2024-02-26T03:30:49;6.98;71.27
71082;SHT31;58740;50.672;18.690;2024-02-26T03:33:23;6.99;71.20
71082;SHT31;58740;50.672;18.690;2024-02-26T03:35:56;6.98;71.03
71082;SHT31;58740;50.672;18.690;2024-02-26T03:38:30;6.98;71.14
71082;SHT31;58740;50.672;18.690;2024-02-26T03:41:03;6.99;71.02
71082;SHT31;58740;50.672;18.690;2024-02-26T03:43:38;6.98;71.12
71082;SHT31;58740;50.672;18.690;2024-02-26T03:46:11;6.97;71.15
71082;SHT31;58740;50.672;18.690;2024-02-26T03:48:44;6.97;71.16
71082;SHT31;58740;50.672;18.690;2024-02-26T03:51:18;6.95;70.98
71082;SHT31;58740;50.672;18.690;2024-02-26T03:53:52;6.95;71.09
71082;SHT31;58740;50.672;18.690;2024-02-26T03:56:25;6.92;70.93
71082;SHT31;58740;50.672;18.690;2024-02-26T03:58:59;6.91;71.04
71082;SHT31;58740;50.672;18.690;2024-02-26T04:01:32;6.89;70.92
71082;SHT31;58740;50.672;18.690;2024-02-26T04:04:05;6.87;70.94
71082;SHT31;58740;50.672;18.690;2024-02-26T04:06:39;6.86;70.99
71082;SHT31;58740;50.672;18.690;2024-02-26T04:09:16;6.84;71.02
71082;SHT31;58740;50.672;18.690;2024-02-26T04:11:49;6.84;71.07
71082;SHT31;58740;50.672;18.690;2024-02-26T04:14:23;6.82;70.98
71082;SHT31;58740;50.672;18.690;2024-02-26T04:16:56;6.81;71.06
71082;SHT31;58740;50.672;18.690;2024-02-26T04:19:29;6.80;71.13
71082;SHT31;58740;50.672;18.690;2024-02-26T04:22:03;6.81;71.28
71082;SHT31;58740;50.672;18.690;2024-02-26T04:24:37;6.80;71.40
71082;SHT31;58740;50.672;18.690;2024-02-26T04:27:10;6.82;71.48
71082;SHT31;58740;50.672;18.690;2024-02-26T04:29:43;6.81;71.41
71082;SHT31;58740;50.672;18.690;2024-02-26T04:32:17;6.81;71.52
71082;SHT31;58740;50.672;18.690;2024-02-26T04:34:50;6.80;71.64
71082;SHT31;58740;50.672;18.690;2024-02-26T04:37:24;6.76;71.58
71082;SHT31;58740;50.672;18.690;2024-02-26T04:40:00;6.75;71.60
71082;SHT31;58740;50.672;18.690;2024-02-26T04:42:35;6.70;71.55
71082;SHT31;58740;50.672;18.690;2024-02-26T04:45:09;6.62;71.50
71082;SHT31;58740;50.672;18.690;2024-02-26T04:47:42;6.54;71.49
71082;SHT31;58740;50.672;18.690;2024-02-26T04:50:16;6.44;71.58
71082;SHT31;58740;50.672;18.690;2024-02-26T04:52:49;6.34;71.61
71082;SHT31;58740;50.672;18.690;2024-02-26T04:55:22;6.23;71.62
71082;SHT31;58740;50.672;18.690;2024-02-26T04:57:56;6.10;71.79
71082;SHT31;58740;50.672;18.690;2024-02-26T05:00:29;6.00;71.96
71082;SHT31;58740;50.672;18.690;2024-02-26T05:03:02;5.91;72.04
71082;SHT31;58740;50.672;18.690;2024-02-26T05:05:36;5.79;72.09
71082;SHT31;58740;50.672;18.690;2024-02-26T05:08:10;5.69;72.14
71082;SHT31;58740;50.672;18.690;2024-02-26T05:10:44;5.61;72.36
71082;SHT31;58740;50.672;18.690;2024-02-26T05:13:18;5.56;72.58
71082;SHT31;58740;50.672;18.690;2024-02-26T05:15:51;5.54;72.73
71082;SHT31;58740;50.672;18.690;2024-02-26T05:18:24;5.53;72.81
71082;SHT31;58740;50.672;18.690;2024-02-26T05:20:58;5.51;72.90
71082;SHT31;58740;50.672;18.690;2024-02-26T05:23:32;5.52;73.28
71082;SHT31;58740;50.672;18.690;2024-02-26T05:26:05;5.54;73.19
71082;SHT31;58740;50.672;18.690;2024-02-26T05:28:39;5.58;73.22
71082;SHT31;58740;50.672;18.690;2024-02-26T05:31:13;5.64;73.74
71082;SHT31;58740;50.672;18.690;2024-02-26T05:33:48;5.70;73.47
71082;SHT31;58740;50.672;18.690;2024-02-26T05:36:21;5.75;73.48
71082;SHT31;58740;50.672;18.690;2024-02-26T05:38:55;5.78;73.57
71082;SHT31;58740;50.672;18.690;2024-02-26T05:41:28;5.79;73.41
71082;SHT31;58740;50.672;18.690;2024-02-26T05:44:02;5.78;73.12
71082;SHT31;58740;50.672;18.690;2024-02-26T05:46:38;5.79;73.55
71082;SHT31;58740;50.672;18.690;2024-02-26T05:49:12;5.82;73.47
71082;SHT31;58740;50.672;18.690;2024-02-26T05:51:45;5.85;73.38
71082;SHT31;58740;50.672;18.690;2024-02-26T05:54:19;5.85;73.09
71082;SHT31;58740;50.672;18.690;2024-02-26T05:56:52;5.82;73.24
71082;SHT31;58740;50.672;18.690;2024-02-26T05:59:27;5.86;73.64
71082;SHT31;58740;50.672;18.690;2024-02-26T06:02:00;5.93;73.60
71082;SHT31;58740;50.672;18.690;2024-02-26T06:04:34;5.98;73.28
71082;SHT31;58740;50.672;18.690;2024-02-26T06:07:07;5.99;73.59
71082;SHT31;58740;50.672;18.690;2024-02-26T06:09:41;6.06;73.41
71082;SHT31;58740;50.672;18.690;2024-02-26T06:12:14;6.11;73.21
71082;SHT31;58740;50.672;18.690;2024-02-26T06:14:48;6.14;73.01
71082;SHT31;58740;50.672;18.690;2024-02-26T06:17:21;6.18;72.94
71082;SHT31;58740;50.672;18.690;2024-02-26T06:19:55;6.20;72.79
71082;SHT31;58740;50.672;18.690;2024-02-26T06:22:29;6.24;72.71
71082;SHT31;58740;50.672;18.690;2024-02-26T06:25:03;6.26;72.63
71082;SHT31;58740;50.672;18.690;2024-02-26T06:27:38;6.30;72.71
71082;SHT31;58740;50.672;18.690;2024-02-26T06:30:12;6.34;72.48
71082;SHT31;58740;50.672;18.690;2024-02-26T06:32:46;6.37;72.40
71082;SHT31;58740;50.672;18.690;2024-02-26T06:35:19;6.40;72.26
71082;SHT31;58740;50.672;18.690;2024-02-26T06:37:53;6.44;72.23
71082;SHT31;58740;50.672;18.690;2024-02-26T06:40:26;6.48;72.21
71082;SHT31;58740;50.672;18.690;2024-02-26T06:42:59;6.51;72.13
71082;SHT31;58740;50.672;18.690;2024-02-26T06:45:33;6.53;71.98
71082;SHT31;58740;50.672;18.690;2024-02-26T06:48:07;6.55;71.78
71082;SHT31;58740;50.672;18.690;2024-02-26T06:50:40;6.56;71.83
71082;SHT31;58740;50.672;18.690;2024-02-26T06:53:13;6.60;71.80
71082;SHT31;58740;50.672;18.690;2024-02-26T06:55:47;6.62;71.78
71082;SHT31;58740;50.672;18.690;2024-02-26T06:58:20;6.66;71.66
71082;SHT31;58740;50.672;18.690;2024-02-26T07:00:54;6.70;71.58
71082;SHT31;58740;50.672;18.690;2024-02-26T07:03:27;6.74;71.60
71082;SHT31;58740;50.672;18.690;2024-02-26T07:06:02;6.78;71.54
71082;SHT31;58740;50.672;18.690;2024-02-26T07:08:36;6.81;71.41
71082;SHT31;58740;50.672;18.690;2024-02-26T07:11:10;6.82;71.36
71082;SHT31;58740;50.672;18.690;2024-02-26T07:13:43;6.84;71.39
71082;SHT31;58740;50.672;18.690;2024-02-26T07:16:18;6.85;71.30
71082;SHT31;58740;50.672;18.690;2024-02-26T07:18:51;6.88;71.27
71082;SHT31;58740;50.672;18.690;2024-02-26T07:21:25;6.90;71.22
71082;SHT31;58740;50.672;18.690;2024-02-26T07:23:59;6.94;71.35
71082;SHT31;58740;50.672;18.690;2024-02-26T07:26:33;6.98;71.25
71082;SHT31;58740;50.672;18.690;2024-02-26T07:29:07;7.03;71.21
71082;SHT31;58740;50.672;18.690;2024-02-26T07:31:41;7.09;71.15
71082;SHT31;58740;50.672;18.690;2024-02-26T07:34:14;7.13;71.05
71082;SHT31;58740;50.672;18.690;2024-02-26T07:36:48;7.19;70.98
71082;SHT31;58740;50.672;18.690;2024-02-26T07:39:21;7.25;70.89
71082;SHT31;58740;50.672;18.690;2024-02-26T07:41:55;7.31;70.79
71082;SHT31;58740;50.672;18.690;2024-02-26T07:44:29;7.38;70.78
71082;SHT31;58740;50.672;18.690;2024-02-26T07:47:03;7.44;70.70
71082;SHT31;58740;50.672;18.690;2024-02-26T07:49:36;7.50;70.63
71082;SHT31;58740;50.672;18.690;2024-02-26T07:52:10;7.56;70.56
71082;SHT31;58740;50.672;18.690;2024-02-26T07:54:44;7.61;70.54
71082;SHT31;58740;50.672;18.690;2024-02-26T07:57:17;7.65;70.53
71082;SHT31;58740;50.672;18.690;2024-02-26T07:59:51;7.69;70.50
71082;SHT31;58740;50.672;18.690;2024-02-26T08:02:24;7.72;70.48
71082;SHT31;58740;50.672;18.690;2024-02-26T08:04:58;7.75;70.52
71082;SHT31;58740;50.672;18.690;2024-02-26T08:07:31;7.78;70.60
71082;SHT31;58740;50.672;18.690;2024-02-26T08:10:05;7.84;70.60
71082;SHT31;58740;50.672;18.690;2024-02-26T08:12:39;7.90;70.60
71082;SHT31;58740;50.672;18.690;2024-02-26T08:15:14;7.94;70.63
71082;SHT31;58740;50.672;18.690;2024-02-26T08:17:48;7.99;70.62
71082;SHT31;58740;50.672;18.690;2024-02-26T08:20:21;8.03;70.61
71082;SHT31;58740;50.672;18.690;2024-02-26T08:22:54;8.08;70.69
71082;SHT31;58740;50.672;18.690;2024-02-26T08:25:28;8.14;70.65
71082;SHT31;58740;50.672;18.690;2024-02-26T08:28:01;8.20;70.54
71082;SHT31;58740;50.672;18.690;2024-02-26T08:30:35;8.26;70.59
71082;SHT31;58740;50.672;18.690;2024-02-26T08:33:08;8.33;70.48
71082;SHT31;58740;50.672;18.690;2024-02-26T08:35:42;8.41;70.48
71082;SHT31;58740;50.672;18.690;2024-02-26T08:38:16;8.53;70.41
71082;SHT31;58740;50.672;18.690;2024-02-26T08:40:49;8.67;70.22
71082;SHT31;58740;50.672;18.690;2024-02-26T08:43:23;8.79;70.17
71082;SHT31;58740;50.672;18.690;2024-02-26T08:45:56;8.89;69.99
71082;SHT31;58740;50.672;18.690;2024-02-26T08:48:29;9.02;69.65
71082;SHT31;58740;50.672;18.690;2024-02-26T08:51:05;9.14;69.44
71082;SHT31;58740;50.672;18.690;2024-02-26T08:53:39;9.27;69.32
71082;SHT31;58740;50.672;18.690;2024-02-26T08:56:12;9.39;68.49
71082;SHT31;58740;50.672;18.690;2024-02-26T08:58:47;9.53;67.99
71082;SHT31;58740;50.672;18.690;2024-02-26T09:01:23;9.63;68.02
71082;SHT31;58740;50.672;18.690;2024-02-26T09:03:56;9.74;68.02
71082;SHT31;58740;50.672;18.690;2024-02-26T09:06:29;9.85;67.40
71082;SHT31;58740;50.672;18.690;2024-02-26T09:09:03;9.94;67.45
71082;SHT31;58740;50.672;18.690;2024-02-26T09:11:36;10.01;67.13
71082;SHT31;58740;50.672;18.690;2024-02-26T09:14:09;10.07;67.09
71082;SHT31;58740;50.672;18.690;2024-02-26T09:16:43;10.14;66.80
71082;SHT31;58740;50.672;18.690;2024-02-26T09:19:17;10.22;66.71
71082;SHT31;58740;50.672;18.690;2024-02-26T09:21:51;10.31;66.33
71082;SHT31;58740;50.672;18.690;2024-02-26T09:24:26;10.39;66.52
71082;SHT31;58740;50.672;18.690;2024-02-26T09:27:00;10.48;66.42
71082;SHT31;58740;50.672;18.690;2024-02-26T09:29:34;10.57;66.17
71082;SHT31;58740;50.672;18.690;2024-02-26T09:32:08;10.65;65.50
71082;SHT31;58740;50.672;18.690;2024-02-26T09:34:41;10.71;65.27
71082;SHT31;58740;50.672;18.690;2024-02-26T09:37:14;10.78;65.37
71082;SHT31;58740;50.672;18.690;2024-02-26T09:39:50;10.82;65.15
71082;SHT31;58740;50.672;18.690;2024-02-26T09:42:24;10.87;65.03
71082;SHT31;58740;50.672;18.690;2024-02-26T09:45:01;10.90;64.99
71082;SHT31;58740;50.672;18.690;2024-02-26T09:47:47;10.95;65.01
71082;SHT31;58740;50.672;18.690;2024-02-26T09:50:22;11.00;64.90
71082;SHT31;58740;50.672;18.690;2024-02-26T09:52:56;11.03;64.91
71082;SHT31;58740;50.672;18.690;2024-02-26T09:55:32;11.09;65.18
71082;SHT31;58740;50.672;18.690;2024-02-26T09:58:05;11.13;64.91
71082;SHT31;58740;50.672;18.690;2024-02-26T10:00:43;11.18;64.69
71082;SHT31;58740;50.672;18.690;2024-02-26T10:06:01;11.30;64.04
71082;SHT31;58740;50.672;18.690;2024-02-26T10:08:37;11.40;63.30
71082;SHT31;58740;50.672;18.690;2024-02-26T10:11:11;11.50;62.49
71082;SHT31;58740;50.672;18.690;2024-02-26T10:13:46;11.60;62.17
71082;SHT31;58740;50.672;18.690;2024-02-26T10:16:20;11.69;61.06
71082;SHT31;58740;50.672;18.690;2024-02-26T10:18:54;11.76;61.02
71082;SHT31;58740;50.672;18.690;2024-02-26T10:21:28;11.83;61.68
71082;SHT31;58740;50.672;18.690;2024-02-26T10:24:02;11.88;61.28
71082;SHT31;58740;50.672;18.690;2024-02-26T10:26:46;11.93;60.97
71082;SHT31;58740;50.672;18.690;2024-02-26T10:29:21;11.98;60.88
71082;SHT31;58740;50.672;18.690;2024-02-26T10:31:56;12.05;60.75
71082;SHT31;58740;50.672;18.690;2024-02-26T10:34:29;12.10;60.35
71082;SHT31;58740;50.672;18.690;2024-02-26T10:37:07;12.14;60.17
71082;SHT31;58740;50.672;18.690;2024-02-26T10:39:42;12.18;60.12
71082;SHT31;58740;50.672;18.690;2024-02-26T10:42:19;12.21;60.83
71082;SHT31;58740;50.672;18.690;2024-02-26T10:44:52;12.27;60.78
71082;SHT31;58740;50.672;18.690;2024-02-26T10:47:27;12.32;60.49
71082;SHT31;58740;50.672;18.690;2024-02-26T10:50:03;12.34;60.33
71082;SHT31;58740;50.672;18.690;2024-02-26T10:52:38;12.36;60.13
71082;SHT31;58740;50.672;18.690;2024-02-26T10:55:13;12.40;59.93
71082;SHT31;58740;50.672;18.690;2024-02-26T10:57:50;12.43;60.13
71082;SHT31;58740;50.672;18.690;2024-02-26T11:00:26;12.47;59.97
71082;SHT31;58740;50.672;18.690;2024-02-26T11:03:00;12.50;60.20
71082;SHT31;58740;50.672;18.690;2024-02-26T11:05:36;12.55;60.08
71082;SHT31;58740;50.672;18.690;2024-02-26T11:08:11;12.59;59.89
71082;SHT31;58740;50.672;18.690;2024-02-26T11:10:45;12.60;59.92
71082;SHT31;58740;50.672;18.690;2024-02-26T11:13:23;12.64;60.04
71082;SHT31;58740;50.672;18.690;2024-02-26T11:16:04;12.67;59.97
71082;SHT31;58740;50.672;18.690;2024-02-26T11:18:38;12.71;60.04
71082;SHT31;58740;50.672;18.690;2024-02-26T11:21:14;12.74;60.05
71082;SHT31;58740;50.672;18.690;2024-02-26T11:23:56;12.75;59.81
71082;SHT31;58740;50.672;18.690;2024-02-26T11:26:32;12.73;60.19
71082;SHT31;58740;50.672;18.690;2024-02-26T11:29:10;12.71;60.10
71082;SHT31;58740;50.672;18.690;2024-02-26T11:31:50;12.72;60.04
71082;SHT31;58740;50.672;18.690;2024-02-26T11:34:24;12.72;60.00
71082;SHT31;58740;50.672;18.690;2024-02-26T11:36:58;12.74;59.98
71082;SHT31;58740;50.672;18.690;2024-02-26T11:39:43;12.75;60.17
71082;SHT31;58740;50.672;18.690;2024-02-26T11:42:22;12.74;60.39
71082;SHT31;58740;50.672;18.690;2024-02-26T11:44:58;12.77;60.17
71082;SHT31;58740;50.672;18.690;2024-02-26T11:47:31;12.79;60.31
71082;SHT31;58740;50.672;18.690;2024-02-26T11:53:21;12.88;60.21
71082;SHT31;58740;50.672;18.690;2024-02-26T11:56:14;12.94;60.05
71082;SHT31;58740;50.672;18.690;2024-02-26T11:59:04;12.99;60.54
71082;SHT31;58740;50.672;18.690;2024-02-26T12:01:43;13.05;60.08
71082;SHT31;58740;50.672;18.690;2024-02-26T12:04:19;13.08;60.03
71082;SHT31;58740;50.672;18.690;2024-02-26T12:06:58;13.11;59.84
71082;SHT31;58740;50.672;18.690;2024-02-26T12:09:35;13.14;59.65
71082;SHT31;58740;50.672;18.690;2024-02-26T12:12:13;13.16;60.02
71082;SHT31;58740;50.672;18.690;2024-02-26T12:14:56;13.17;59.98
71082;SHT31;58740;50.672;18.690;2024-02-26T12:17:31;13.16;59.84
71082;SHT31;58740;50.672;18.690;2024-02-26T12:20:09;13.17;60.01
71082;SHT31;58740;50.672;18.690;2024-02-26T12:22:46;13.14;60.02
71082;SHT31;58740;50.672;18.690;2024-02-26T12:25:23;13.13;59.77
71082;SHT31;58740;50.672;18.690;2024-02-26T12:27:58;13.14;59.75
71082;SHT31;58740;50.672;18.690;2024-02-26T12:30:32;13.13;59.41
71082;SHT31;58740;50.672;18.690;2024-02-26T12:33:06;13.11;59.65
71082;SHT31;58740;50.672;18.690;2024-02-26T12:35:39;13.11;59.62
71082;SHT31;58740;50.672;18.690;2024-02-26T12:38:16;13.10;59.73
71082;SHT31;58740;50.672;18.690;2024-02-26T12:40:50;13.10;59.85
71082;SHT31;58740;50.672;18.690;2024-02-26T12:43:24;13.09;60.07
71082;SHT31;58740;50.672;18.690;2024-02-26T12:45:59;13.08;60.12
71082;SHT31;58740;50.672;18.690;2024-02-26T12:48:37;13.07;60.05
71082;SHT31;58740;50.672;18.690;2024-02-26T12:51:11;13.08;60.16
71082;SHT31;58740;50.672;18.690;2024-02-26T12:53:46;13.06;59.85
71082;SHT31;58740;50.672;18.690;2024-02-26T12:56:21;13.05;59.89
71082;SHT31;58740;50.672;18.690;2024-02-26T12:58:56;13.03;60.12
71082;SHT31;58740;50.672;18.690;2024-02-26T13:01:30;13.02;60.29
71082;SHT31;58740;50.672;18.690;2024-02-26T13:04:04;13.03;60.54
71082;SHT31;58740;50.672;18.690;2024-02-26T13:06:38;13.03;60.66
71082;SHT31;58740;50.672;18.690;2024-02-26T13:09:13;13.05;60.84
71082;SHT31;58740;50.672;18.690;2024-02-26T13:11:47;13.07;60.70
71082;SHT31;58740;50.672;18.690;2024-02-26T13:14:26;13.08;60.77
71082;SHT31;58740;50.672;18.690;2024-02-26T13:17:00;13.06;60.77
71082;SHT31;58740;50.672;18.690;2024-02-26T13:19:35;13.08;60.54
71082;SHT31;58740;50.672;18.690;2024-02-26T13:22:18;13.12;60.12
71082;SHT31;58740;50.672;18.690;2024-02-26T13:24:56;13.18;59.93
71082;SHT31;58740;50.672;18.690;2024-02-26T13:27:31;13.25;59.83
71082;SHT31;58740;50.672;18.690;2024-02-26T13:30:08;13.31;59.82
71082;SHT31;58740;50.672;18.690;2024-02-26T13:32:44;13.36;59.94
71082;SHT31;58740;50.672;18.690;2024-02-26T13:35:17;13.39;60.20
71082;SHT31;58740;50.672;18.690;2024-02-26T13:37:51;13.43;60.03
71082;SHT31;58740;50.672;18.690;2024-02-26T13:40:24;13.47;60.03
71082;SHT31;58740;50.672;18.690;2024-02-26T13:42:58;13.50;59.88
71082;SHT31;58740;50.672;18.690;2024-02-26T13:45:31;13.52;59.76
71082;SHT31;58740;50.672;18.690;2024-02-26T13:48:09;13.53;59.56
71082;SHT31;58740;50.672;18.690;2024-02-26T13:50:44;13.51;59.43
71082;SHT31;58740;50.672;18.690;2024-02-26T13:53:18;13.49;59.58
71082;SHT31;58740;50.672;18.690;2024-02-26T13:55:52;13.47;59.68
71082;SHT31;58740;50.672;18.690;2024-02-26T13:58:27;13.45;59.70
71082;SHT31;58740;50.672;18.690;2024-02-26T14:01:01;13.45;59.88
71082;SHT31;58740;50.672;18.690;2024-02-26T14:03:35;13.42;59.99
71082;SHT31;58740;50.672;18.690;2024-02-26T14:06:08;13.41;59.86
71082;SHT31;58740;50.672;18.690;2024-02-26T14:08:42;13.40;59.94
71082;SHT31;58740;50.672;18.690;2024-02-26T14:11:15;13.38;60.17
71082;SHT31;58740;50.672;18.690;2024-02-26T14:13:49;13.38;60.34
71082;SHT31;58740;50.672;18.690;2024-02-26T14:16:22;13.38;60.22
71082;SHT31;58740;50.672;18.690;2024-02-26T14:18:59;13.38;60.49
71082;SHT31;58740;50.672;18.690;2024-02-26T14:21:33;13.39;60.36
71082;SHT31;58740;50.672;18.690;2024-02-26T14:24:06;13.39;60.55
71082;SHT31;58740;50.672;18.690;2024-02-26T14:26:40;13.40;60.59
71082;SHT31;58740;50.672;18.690;2024-02-26T14:29:13;13.41;60.40
71082;SHT31;58740;50.672;18.690;2024-02-26T14:31:46;13.42;60.69
71082;SHT31;58740;50.672;18.690;2024-02-26T14:34:20;13.42;60.73
71082;SHT31;58740;50.672;18.690;2024-02-26T14:36:56;13.42;60.66
71082;SHT31;58740;50.672;18.690;2024-02-26T14:39:30;13.40;60.57
71082;SHT31;58740;50.672;18.690;2024-02-26T14:42:04;13.40;60.67
71082;SHT31;58740;50.672;18.690;2024-02-26T14:44:38;13.38;60.80
71082;SHT31;58740;50.672;18.690;2024-02-26T14:47:11;13.37;60.95
71082;SHT31;58740;50.672;18.690;2024-02-26T14:49:44;13.35;61.12
71082;SHT31;58740;50.672;18.690;2024-02-26T14:52:20;13.33;61.13
71082;SHT31;58740;50.672;18.690;2024-02-26T14:54:53;13.32;61.12
71082;SHT31;58740;50.672;18.690;2024-02-26T14:57:27;13.30;61.08
71082;SHT31;58740;50.672;18.690;2024-02-26T15:00:00;13.28;61.15
71082;SHT31;58740;50.672;18.690;2024-02-26T15:02:36;13.26;60.91
71082;SHT31;58740;50.672;18.690;2024-02-26T15:05:10;13.25;60.81
71082;SHT31;58740;50.672;18.690;2024-02-26T15:07:45;13.22;60.77
71082;SHT31;58740;50.672;18.690;2024-02-26T15:10:19;13.20;60.84
71082;SHT31;58740;50.672;18.690;2024-02-26T15:12:52;13.18;60.89
71082;SHT31;58740;50.672;18.690;2024-02-26T15:15:25;13.16;61.01
71082;SHT31;58740;50.672;18.690;2024-02-26T15:18:00;13.14;61.20
71082;SHT31;58740;50.672;18.690;2024-02-26T15:20:34;13.11;61.33
71082;SHT31;58740;50.672;18.690;2024-02-26T15:23:08;13.10;61.41
71082;SHT31;58740;50.672;18.690;2024-02-26T15:25:41;13.06;61.57
71082;SHT31;58740;50.672;18.690;2024-02-26T15:28:15;13.04;61.76
71082;SHT31;58740;50.672;18.690;2024-02-26T15:30:48;13.01;61.91
71082;SHT31;58740;50.672;18.690;2024-02-26T15:33:21;12.98;62.00
71082;SHT31;58740;50.672;18.690;2024-02-26T15:35:55;12.94;62.17
71082;SHT31;58740;50.672;18.690;2024-02-26T15:38:28;12.91;62.33
71082;SHT31;58740;50.672;18.690;2024-02-26T15:41:02;12.89;62.48
71082;SHT31;58740;50.672;18.690;2024-02-26T15:43:42;12.85;62.71
71082;SHT31;58740;50.672;18.690;2024-02-26T15:46:15;12.82;62.98
71082;SHT31;58740;50.672;18.690;2024-02-26T15:48:49;12.78;63.15
71082;SHT31;58740;50.672;18.690;2024-02-26T15:51:23;12.76;63.25
71082;SHT31;58740;50.672;18.690;2024-02-26T15:53:56;12.73;63.50
71082;SHT31;58740;50.672;18.690;2024-02-26T15:56:29;12.70;63.71
71082;SHT31;58740;50.672;18.690;2024-02-26T15:59:04;12.67;64.00
71082;SHT31;58740;50.672;18.690;2024-02-26T16:01:38;12.64;64.25
71082;SHT31;58740;50.672;18.690;2024-02-26T16:04:11;12.60;64.50
71082;SHT31;58740;50.672;18.690;2024-02-26T16:06:45;12.56;64.75
71082;SHT31;58740;50.672;18.690;2024-02-26T16:09:26;12.52;65.10
71082;SHT31;58740;50.672;18.690;2024-02-26T16:12:00;12.48;65.33
71082;SHT31;58740;50.672;18.690;2024-02-26T16:14:45;12.45;65.59